createdAt,value
2023-02-02T00:01:17.635Z,70.02
2023-02-02T00:02:27.232Z,69.45
2023-02-02T00:03:37.564Z,68.43
2023-02-02T00:04:46.190Z,68.91
2023-02-02T00:05:55.897Z,69.30
2023-02-02T00:07:06.069Z,70.04
2023-02-02T00:08:20.583Z,70.62
2023-02-02T00:09:31.462Z,71.29
2023-02-02T00:10:41.372Z,71.32
2023-02-02T00:11:51.190Z,71.72
2023-02-02T00:13:00.323Z,71.58
2023-02-02T00:14:10.384Z,71.70
2023-02-02T00:15:19.545Z,70.56
2023-02-02T00:17:47.845Z,70.18
2023-02-02T00:18:59.932Z,69.94
2023-02-02T00:20:10.051Z,69.75
2023-02-02T00:21:18.568Z,70.28
2023-02-02T00:22:27.908Z,70.82
2023-02-02T00:23:37.265Z,69.84
2023-02-02T00:24:47.511Z,70.45
2023-02-02T00:25:57.043Z,71.29
2023-02-02T00:27:05.972Z,71.54
2023-02-02T00:28:16.007Z,71.72
2023-02-02T00:29:27.416Z,71.50
2023-02-02T00:30:38.166Z,71.06
2023-02-02T00:31:49.089Z,71.35
2023-02-02T00:32:58.281Z,71.53
2023-02-02T00:34:07.521Z,71.32
2023-02-02T00:35:16.934Z,71.69
2023-02-02T00:36:25.950Z,71.90
2023-02-02T00:37:35.378Z,71.86
2023-02-02T00:38:45.342Z,71.27
2023-02-02T00:39:54.450Z,71.46
2023-02-02T00:41:03.907Z,71.75
2023-02-02T00:42:12.842Z,70.76
2023-02-02T00:43:21.557Z,70.27
2023-02-02T00:44:49.617Z,70.74
2023-02-02T00:45:59.454Z,70.58
2023-02-02T00:47:08.816Z,70.88
2023-02-02T00:48:19.265Z,71.22
2023-02-02T00:49:29.035Z,70.33
2023-02-02T00:50:38.117Z,70.13
2023-02-02T00:51:46.730Z,69.81
2023-02-02T00:52:58.416Z,70.17
2023-02-02T00:54:08.071Z,69.69
2023-02-02T00:55:18.887Z,69.82
2023-02-02T00:56:28.425Z,70.75
2023-02-02T00:57:39.015Z,71.64
2023-02-02T00:58:48.105Z,71.42
2023-02-02T00:59:57.209Z,71.30
2023-02-02T01:02:27.912Z,71.66
2023-02-02T01:03:37.531Z,71.62
2023-02-02T01:04:46.605Z,71.87
2023-02-02T01:05:55.721Z,71.89
2023-02-02T01:07:06.227Z,72.26
2023-02-02T01:08:15.737Z,71.58
2023-02-02T01:09:24.354Z,71.10
2023-02-02T01:10:34.797Z,71.58
2023-02-02T01:11:44.097Z,71.54
2023-02-02T01:12:54.016Z,71.81
2023-02-02T01:14:03.136Z,71.95
2023-02-02T01:15:12.994Z,72.40
2023-02-02T01:17:37.604Z,71.97
2023-02-02T01:18:46.641Z,71.75
2023-02-02T01:19:55.425Z,71.34
2023-02-02T01:21:07.641Z,71.59
2023-02-02T01:22:19.007Z,73.34
2023-02-02T01:23:29.415Z,73.55
2023-02-02T01:24:38.035Z,73.09
2023-02-02T01:27:06.358Z,72.91
2023-02-02T01:28:14.896Z,72.78
2023-02-02T01:29:25.593Z,72.58
2023-02-02T01:31:50.988Z,73.44
2023-02-02T01:33:01.737Z,73.20
2023-02-02T01:34:12.204Z,73.59
2023-02-02T01:35:23.295Z,73.22
2023-02-02T01:36:32.878Z,73.00
2023-02-02T01:37:42.553Z,72.85
2023-02-02T01:38:52.279Z,73.50
2023-02-02T01:40:01.394Z,73.15
2023-02-02T01:41:15.154Z,72.84
2023-02-02T01:42:25.832Z,72.26
2023-02-02T01:43:47.402Z,72.88
2023-02-02T01:46:29.773Z,72.33
2023-02-02T01:47:45.171Z,72.39
2023-02-02T01:49:01.149Z,71.64
2023-02-02T01:50:13.582Z,72.12
2023-02-02T01:51:26.892Z,71.23
2023-02-02T01:52:38.242Z,70.86
2023-02-02T01:53:49.277Z,70.95
2023-02-02T01:55:03.825Z,72.00
2023-02-02T01:56:18.406Z,72.18
2023-02-02T01:57:32.089Z,73.49
2023-02-02T01:58:42.782Z,73.20
2023-02-02T01:59:55.754Z,73.62
2023-02-02T02:01:07.829Z,73.52
2023-02-02T02:02:18.063Z,74.08
2023-02-02T02:03:32.457Z,73.74
2023-02-02T02:04:42.533Z,73.93
2023-02-02T02:07:13.724Z,73.58
2023-02-02T02:08:38.651Z,72.90
2023-02-02T02:09:48.093Z,72.88
2023-02-02T02:10:58.918Z,73.51
2023-02-02T02:13:52.350Z,73.29
2023-02-02T02:15:22.393Z,73.67
2023-02-02T02:18:37.853Z,71.83
2023-02-02T02:20:42.209Z,72.40
2023-02-02T02:22:23.059Z,72.11
2023-02-02T02:23:57.473Z,70.89
2023-02-02T02:25:38.102Z,70.93
2023-02-02T02:26:51.591Z,71.03
2023-02-02T02:28:24.239Z,70.74
2023-02-02T02:31:30.746Z,70.03
2023-02-02T02:33:04.693Z,70.16
2023-02-02T02:34:36.933Z,69.05
2023-02-02T02:37:20.762Z,68.93
2023-02-02T02:38:43.139Z,68.92
2023-02-02T02:39:56.264Z,69.50
2023-02-02T02:42:31.953Z,71.60
2023-02-02T02:43:53.939Z,72.29
2023-02-02T02:45:06.123Z,73.42
2023-02-02T02:46:16.209Z,73.87
2023-02-02T02:47:27.677Z,74.35
2023-02-02T02:48:36.887Z,74.47
2023-02-02T02:49:48.101Z,74.93
2023-02-02T02:51:08.661Z,74.58
2023-02-02T02:52:18.896Z,74.57
2023-02-02T02:53:28.796Z,74.74
2023-02-02T02:54:53.008Z,74.76
2023-02-02T02:56:06.856Z,73.97
2023-02-02T03:00:41.933Z,73.85
2023-02-02T03:02:17.632Z,73.48
2023-02-02T03:05:33.950Z,72.66
2023-02-02T03:06:46.770Z,73.11
2023-02-02T03:09:41.430Z,71.60
2023-02-02T03:10:52.194Z,71.61
2023-02-02T03:12:01.539Z,70.00
2023-02-02T03:13:13.200Z,70.70
2023-02-02T03:14:24.272Z,70.85
2023-02-02T03:15:33.326Z,71.49
2023-02-02T03:16:42.299Z,71.68
2023-02-02T03:17:53.149Z,71.92
2023-02-02T03:19:02.200Z,71.66
2023-02-02T03:20:12.363Z,72.46
2023-02-02T03:21:21.409Z,72.19
2023-02-02T03:22:31.133Z,72.39
2023-02-02T03:23:41.850Z,72.24
2023-02-02T03:24:51.597Z,71.99
2023-02-02T03:26:01.016Z,71.94
2023-02-02T03:27:11.534Z,71.37
2023-02-02T03:28:23.594Z,71.64
2023-02-02T03:29:33.178Z,70.97
2023-02-02T03:30:44.602Z,71.00
2023-02-02T03:31:54.516Z,71.10
2023-02-02T03:33:04.678Z,71.67
2023-02-02T03:35:28.947Z,72.45
2023-02-02T03:36:38.032Z,72.04
2023-02-02T03:37:48.933Z,71.78
2023-02-02T03:38:58.955Z,71.69
2023-02-02T03:40:09.660Z,72.11
2023-02-02T03:41:19.292Z,71.64
2023-02-02T05:51:03.256Z,88.83
2023-02-02T05:52:17.765Z,88.40
2023-02-02T05:53:32.658Z,87.53
2023-02-02T05:54:42.976Z,87.14
2023-02-02T05:55:52.773Z,86.11
2023-02-02T05:57:03.709Z,85.83
2023-02-02T05:59:29.746Z,83.66
2023-02-02T06:00:39.099Z,82.73
2023-02-02T06:01:48.611Z,82.42
2023-02-02T06:02:57.146Z,81.07
2023-02-02T06:04:07.016Z,80.38
2023-02-02T06:05:16.243Z,80.42
2023-02-02T06:06:25.284Z,78.96
2023-02-02T06:07:34.511Z,77.97
2023-02-02T06:08:43.245Z,77.81
2023-02-02T06:09:52.666Z,77.31
2023-02-02T06:11:17.266Z,76.76
2023-02-02T06:12:26.080Z,76.35
2023-02-02T06:13:35.312Z,76.29
2023-02-02T06:14:45.000Z,76.13
2023-02-02T06:15:58.969Z,76.61
2023-02-02T06:17:08.766Z,76.48
2023-02-02T06:18:18.832Z,74.72
2023-02-02T06:19:27.374Z,74.30
2023-02-02T06:20:37.665Z,74.06
2023-02-02T06:21:46.093Z,74.70
2023-02-02T06:22:54.956Z,73.94
2023-02-02T06:24:04.705Z,73.83
2023-02-02T06:25:14.351Z,73.73
2023-02-02T06:27:38.805Z,73.25
2023-02-02T06:28:52.926Z,72.41
2023-02-02T06:30:01.923Z,72.10
2023-02-02T06:31:12.194Z,72.26
2023-02-02T06:32:21.979Z,72.39
2023-02-02T06:33:31.004Z,72.93
2023-02-02T06:34:40.659Z,72.60
2023-02-02T06:35:49.162Z,72.67
2023-02-02T06:36:58.982Z,72.63
2023-02-02T06:38:07.598Z,72.84
2023-02-02T06:40:31.560Z,72.40
2023-02-02T06:41:41.095Z,72.46
2023-02-02T06:43:02.998Z,72.36
2023-02-02T06:44:15.285Z,72.05
2023-02-02T06:45:25.045Z,72.57
2023-02-02T06:46:34.687Z,71.67
2023-02-02T06:47:43.881Z,71.33
2023-02-02T06:48:53.714Z,71.62
2023-02-02T06:51:19.951Z,71.14
2023-02-02T06:52:29.077Z,70.74
2023-02-02T06:53:38.408Z,70.33
2023-02-02T06:54:47.421Z,70.77
2023-02-02T06:55:59.615Z,70.85
2023-02-02T06:57:08.941Z,69.95
2023-02-02T06:58:18.667Z,70.31
2023-02-02T06:59:27.423Z,70.05
2023-02-02T07:01:54.692Z,70.17
2023-02-02T07:03:04.161Z,70.00
2023-02-02T07:04:12.689Z,70.31
2023-02-02T07:05:23.653Z,69.81
2023-02-02T07:06:33.840Z,70.54
2023-02-02T07:07:43.313Z,70.39
2023-02-02T07:09:01.845Z,70.90
2023-02-02T07:10:05.520Z,70.48
2023-02-02T07:11:16.587Z,70.61
2023-02-02T07:12:26.564Z,71.19
2023-02-02T07:13:35.416Z,70.80
2023-02-02T07:14:44.930Z,70.20
2023-02-02T07:15:55.250Z,69.84
2023-02-02T07:17:05.209Z,69.62
2023-02-02T07:18:16.128Z,69.88
2023-02-02T07:19:25.058Z,69.88
2023-02-02T07:21:52.899Z,71.52
2023-02-02T07:23:03.935Z,71.86
2023-02-02T07:24:14.497Z,71.83
2023-02-02T07:25:23.997Z,71.00
2023-02-02T07:26:35.716Z,70.76
2023-02-02T07:27:46.269Z,70.94
2023-02-02T07:28:55.514Z,71.75
2023-02-02T07:30:05.385Z,71.99
2023-02-02T07:31:19.970Z,70.91
2023-02-02T07:32:29.353Z,69.74
2023-02-02T07:33:40.393Z,70.04
2023-02-02T07:36:07.274Z,69.22
2023-02-02T07:38:32.153Z,68.53
2023-02-02T07:39:43.954Z,68.44
2023-02-02T07:42:09.540Z,68.71
2023-02-02T07:43:20.759Z,69.33
2023-02-02T07:44:30.616Z,69.06
2023-02-02T07:45:39.572Z,69.15
2023-02-02T07:48:04.087Z,69.58
2023-02-02T07:49:16.098Z,69.05
2023-02-02T07:50:26.147Z,69.13
2023-02-02T07:51:37.844Z,69.20
2023-02-02T07:52:46.166Z,69.17
2023-02-02T07:53:57.714Z,69.54
2023-02-02T07:55:14.861Z,70.54
2023-02-02T07:56:24.287Z,70.61
2023-02-02T07:57:32.966Z,71.42
2023-02-02T07:58:42.689Z,71.42
2023-02-02T08:01:11.735Z,70.95
2023-02-02T08:02:21.203Z,70.49
2023-02-02T08:03:30.154Z,69.97
2023-02-02T08:04:39.516Z,69.64
2023-02-02T08:05:49.294Z,69.39
2023-02-02T08:06:58.720Z,69.91
2023-02-02T08:08:08.662Z,69.69
2023-02-02T08:09:17.311Z,68.42
2023-02-02T08:10:26.229Z,68.95
2023-02-02T08:11:37.535Z,69.46
2023-02-02T08:12:46.115Z,69.59
2023-02-02T08:14:00.468Z,69.90
2023-02-02T08:15:11.835Z,69.71
2023-02-02T08:16:23.360Z,69.57
2023-02-02T08:17:32.052Z,68.35
2023-02-02T08:18:41.945Z,67.95
2023-02-02T08:19:51.526Z,68.50
2023-02-02T08:22:20.388Z,68.57
2023-02-02T08:24:46.828Z,68.63
2023-02-02T08:26:09.845Z,69.56
2023-02-02T08:27:18.320Z,69.69
2023-02-02T08:28:28.039Z,69.65
2023-02-02T08:29:39.465Z,69.67
2023-02-02T08:30:48.832Z,70.25
2023-02-02T08:31:59.290Z,70.15
2023-02-02T08:33:08.590Z,70.10
2023-02-02T08:34:17.131Z,70.64
2023-02-02T08:35:27.205Z,70.73
2023-02-02T08:36:36.376Z,70.54
2023-02-02T08:37:48.828Z,69.86
2023-02-02T08:40:25.206Z,67.78
2023-02-02T08:41:36.483Z,67.81
2023-02-02T08:42:47.574Z,68.50
2023-02-02T08:46:02.972Z,68.88
2023-02-02T08:46:24.904Z,68.99
2023-02-02T08:47:34.670Z,68.79
2023-02-02T08:48:44.747Z,68.88
2023-02-02T08:49:53.983Z,68.72
2023-02-02T08:51:04.082Z,67.61
2023-02-02T08:52:12.869Z,67.97
2023-02-02T08:53:22.844Z,68.29
2023-02-02T08:54:32.498Z,68.51
2023-02-02T08:55:41.404Z,68.63
2023-02-02T08:56:50.164Z,68.61
2023-02-02T08:57:58.687Z,68.29
2023-02-02T08:59:08.818Z,68.06
2023-02-02T09:01:35.532Z,67.45
2023-02-02T09:02:44.857Z,67.04
2023-02-02T09:03:59.185Z,67.48
2023-02-02T09:05:08.516Z,67.72
2023-02-02T09:06:20.973Z,67.75
2023-02-02T09:07:32.932Z,67.60
2023-02-02T09:08:43.012Z,67.93
2023-02-02T09:09:54.404Z,67.94
2023-02-02T09:12:26.921Z,67.22
2023-02-02T09:13:37.561Z,67.50
2023-02-02T09:14:46.638Z,67.51
2023-02-02T09:16:00.695Z,67.82
2023-02-02T09:17:10.451Z,67.71
2023-02-02T09:18:18.989Z,66.94
2023-02-02T09:20:43.027Z,67.28
2023-02-02T09:23:07.588Z,67.64
2023-02-02T09:24:17.749Z,68.15
2023-02-02T09:25:27.957Z,67.60
2023-02-02T09:26:38.246Z,67.85
2023-02-02T09:27:47.216Z,68.01
2023-02-02T09:29:05.888Z,67.57
2023-02-02T09:30:16.716Z,67.86
2023-02-02T09:31:26.307Z,67.63
2023-02-02T09:32:35.335Z,67.20
2023-02-02T09:33:44.435Z,66.98
2023-02-02T09:34:53.342Z,66.60
2023-02-02T09:36:11.542Z,66.88
2023-02-02T09:37:21.205Z,65.73
2023-02-02T09:38:30.749Z,64.90
2023-02-02T09:39:41.161Z,65.97
2023-02-02T09:44:01.563Z,67.48
2023-02-02T09:47:20.790Z,67.05
2023-02-02T09:48:59.783Z,67.34
2023-02-02T09:50:24.665Z,67.94
2023-02-02T09:51:38.258Z,67.58
2023-02-02T09:53:08.034Z,68.00
2023-02-02T09:54:36.100Z,67.96
2023-02-02T09:55:52.336Z,67.75
2023-02-02T09:57:05.308Z,68.23
2023-02-02T09:58:26.678Z,68.58
2023-02-02T09:59:39.390Z,68.62
2023-02-02T10:01:08.950Z,68.24
2023-02-02T10:02:30.341Z,67.51
2023-02-02T10:04:01.536Z,67.16
2023-02-02T10:05:25.664Z,67.83
2023-02-02T10:06:47.173Z,67.98
2023-02-02T10:07:59.949Z,67.31
2023-02-02T10:10:31.228Z,67.06
2023-02-02T10:12:03.480Z,67.66
2023-02-02T10:13:28.586Z,67.64
2023-02-02T10:17:46.652Z,66.96
2023-02-02T10:20:39.093Z,66.56
2023-02-02T10:23:29.910Z,66.86
2023-02-02T10:24:39.384Z,66.98
2023-02-02T10:25:57.623Z,67.12
2023-02-02T10:27:13.044Z,67.58
2023-02-02T10:28:27.450Z,67.58
2023-02-02T10:29:49.116Z,66.42
2023-02-02T10:32:26.995Z,67.77
2023-02-02T10:33:40.850Z,67.22
2023-02-02T10:35:22.017Z,67.06
2023-02-02T10:36:37.635Z,67.51
2023-02-02T10:37:57.280Z,67.48
2023-02-02T10:41:21.813Z,67.51
2023-02-02T10:44:39.662Z,67.59
2023-02-02T10:47:10.539Z,68.28
2023-02-02T10:48:27.907Z,68.80
2023-02-02T10:49:38.200Z,68.63
2023-02-02T10:50:50.286Z,68.83
2023-02-02T10:52:18.730Z,68.84
2023-02-02T10:53:30.376Z,69.08
2023-02-02T10:55:04.507Z,68.78
2023-02-02T10:56:14.928Z,68.57
2023-02-02T10:58:59.275Z,68.59
2023-02-02T11:01:29.988Z,69.39
2023-02-02T11:02:39.191Z,69.43
2023-02-02T11:03:51.491Z,69.62
2023-02-02T11:05:19.585Z,69.95
2023-02-02T11:06:47.514Z,70.05
2023-02-02T11:07:58.035Z,69.45
2023-02-02T11:10:28.503Z,69.44
2023-02-02T11:11:44.829Z,69.13
2023-02-02T11:13:00.035Z,69.37
2023-02-02T11:15:31.810Z,69.29
2023-02-02T11:18:29.536Z,69.67
2023-02-02T11:19:39.842Z,69.02
2023-02-02T11:22:05.937Z,69.03
2023-02-02T11:24:49.006Z,69.67
2023-02-02T11:26:00.888Z,68.88
2023-02-02T11:28:41.019Z,68.82
2023-02-02T11:29:52.970Z,68.59
2023-02-02T11:31:02.609Z,68.54
2023-02-02T11:32:29.035Z,68.23
2023-02-02T11:33:37.767Z,68.08
2023-02-02T11:34:46.483Z,68.70
2023-02-02T11:35:59.316Z,68.78
2023-02-02T11:37:18.006Z,68.57
2023-02-02T11:38:27.488Z,67.93
2023-02-02T11:39:37.262Z,67.57
2023-02-02T11:40:56.361Z,67.37
2023-02-02T11:42:08.825Z,67.57
2023-02-02T11:44:42.190Z,67.75
2023-02-02T11:47:28.590Z,68.50
2023-02-02T11:48:39.796Z,69.01
2023-02-02T11:49:51.912Z,68.55
2023-02-02T11:51:04.074Z,68.24
2023-02-02T11:52:20.816Z,67.95
2023-02-02T11:53:49.408Z,67.73
2023-02-02T11:56:21.257Z,67.80
2023-02-02T11:57:30.215Z,67.29
2023-02-02T11:58:57.835Z,66.83
2023-02-02T12:00:19.409Z,66.92
2023-02-02T12:01:32.929Z,66.30
2023-02-02T12:04:19.285Z,67.84
2023-02-02T12:05:34.993Z,66.75
2023-02-02T12:06:45.349Z,67.10
2023-02-02T12:07:54.275Z,67.41
2023-02-02T12:09:13.922Z,67.28
2023-02-02T12:10:33.501Z,67.42
2023-02-02T12:12:10.799Z,67.16
2023-02-02T12:13:34.284Z,67.24
2023-02-02T12:15:17.553Z,66.59
2023-02-02T12:18:39.512Z,66.15
2023-02-02T12:21:33.693Z,66.02
2023-02-02T12:26:25.139Z,65.95
2023-02-02T12:29:36.507Z,65.32
2023-02-02T12:31:04.284Z,65.55
2023-02-02T12:35:31.015Z,65.46
2023-02-02T12:38:32.565Z,65.47
2023-02-02T12:41:51.009Z,64.25
2023-02-02T12:43:12.931Z,64.79
2023-02-02T12:47:57.713Z,64.94
2023-02-02T12:52:02.716Z,64.58
2023-02-02T12:53:36.231Z,64.40
2023-02-02T12:54:56.722Z,64.72
2023-02-02T12:57:52.872Z,64.74
2023-02-02T13:02:21.811Z,64.03
2023-02-02T13:05:25.893Z,63.45
2023-02-02T13:06:44.988Z,63.66
2023-02-02T13:10:09.769Z,63.65
2023-02-02T13:16:07.443Z,64.41
2023-02-02T13:18:57.886Z,64.68
2023-02-02T13:20:10.698Z,64.90
2023-02-02T13:21:24.533Z,65.18
2023-02-02T13:23:06.679Z,65.32
2023-02-02T13:24:17.248Z,65.46
2023-02-02T13:25:30.527Z,65.63
2023-02-02T13:28:01.199Z,64.81
2023-02-02T13:29:19.479Z,65.46
2023-02-02T13:30:35.543Z,65.04
2023-02-02T13:31:57.608Z,65.45
2023-02-02T13:34:56.298Z,65.57
2023-02-02T13:37:53.403Z,65.06
2023-02-02T13:40:40.908Z,65.44
2023-02-02T13:41:53.387Z,65.27
2023-02-02T13:43:18.010Z,65.19
2023-02-02T13:46:06.151Z,64.68
2023-02-02T13:49:00.481Z,65.40
2023-02-02T13:52:00.970Z,65.60
2023-02-02T13:53:40.235Z,65.98
2023-02-02T13:56:41.136Z,65.41
2023-02-02T13:58:22.333Z,65.84
2023-02-02T14:01:08.778Z,66.14
2023-02-02T14:02:24.898Z,66.46
2023-02-02T14:08:24.232Z,67.12
2023-02-02T14:09:37.057Z,67.44
2023-02-02T14:10:55.532Z,67.48
2023-02-02T14:12:07.925Z,67.73
2023-02-02T14:14:53.446Z,67.87
2023-02-02T14:16:05.595Z,67.67
2023-02-02T14:17:18.782Z,67.45
2023-02-02T14:18:51.244Z,67.22
2023-02-02T14:20:03.892Z,67.05
2023-02-02T14:22:44.296Z,66.79
2023-02-02T14:23:55.298Z,66.63
2023-02-02T14:25:25.143Z,66.36
2023-02-02T14:26:53.821Z,66.16
2023-02-02T14:28:12.211Z,66.49
2023-02-02T14:29:38.295Z,66.70
2023-02-02T14:30:52.049Z,66.83
2023-02-02T14:32:29.542Z,66.56
2023-02-02T14:33:42.167Z,66.71
2023-02-02T14:36:16.536Z,67.12
2023-02-02T14:37:32.303Z,67.04
2023-02-02T14:39:00.511Z,67.32
2023-02-02T14:41:53.607Z,67.47
2023-02-02T14:43:39.262Z,67.80
2023-02-02T14:46:35.744Z,67.71
2023-02-02T14:49:15.463Z,67.48
2023-02-02T14:51:55.488Z,67.31
2023-02-02T14:53:14.532Z,67.77
2023-02-02T14:54:28.072Z,68.17
2023-02-02T14:57:27.908Z,68.99
2023-02-02T14:58:40.034Z,68.81
2023-02-02T14:59:51.159Z,68.70
2023-02-02T15:03:53.283Z,68.79
2023-02-02T15:05:33.396Z,68.63
2023-02-02T15:06:43.459Z,68.84
2023-02-02T15:07:55.382Z,68.58
2023-02-02T15:09:27.629Z,68.21
2023-02-02T15:10:53.390Z,68.17
2023-02-02T15:13:23.642Z,68.35
2023-02-02T15:14:46.415Z,68.31
2023-02-02T15:16:06.938Z,68.50
2023-02-02T15:17:36.071Z,68.58
2023-02-02T15:18:48.270Z,68.67
2023-02-02T15:22:01.085Z,68.61
2023-02-02T15:23:22.449Z,68.59
2023-02-02T15:24:34.382Z,68.96
2023-02-02T15:26:01.860Z,69.16
2023-02-02T15:27:17.174Z,69.32
2023-02-02T15:28:39.284Z,69.43
2023-02-02T15:31:24.588Z,69.68
2023-02-02T15:32:35.535Z,69.71
2023-02-02T15:36:34.601Z,69.74
2023-02-02T15:37:47.691Z,69.68
2023-02-02T15:40:25.185Z,69.92
2023-02-02T15:41:42.806Z,70.31
2023-02-02T15:43:01.576Z,70.42
2023-02-02T15:45:48.080Z,71.14
2023-02-02T15:47:01.774Z,71.20
2023-02-02T15:49:36.520Z,70.66
2023-02-02T15:52:32.849Z,69.87
2023-02-02T15:53:45.294Z,69.24
2023-02-02T15:54:57.387Z,68.86
2023-02-02T15:56:22.926Z,68.74
2023-02-02T15:57:35.302Z,69.02
2023-02-02T15:58:53.939Z,68.36
2023-02-02T16:00:23.024Z,68.46
2023-02-02T16:01:35.460Z,68.73
2023-02-02T16:02:45.807Z,68.71
2023-02-02T16:05:26.795Z,68.53
2023-02-02T16:06:36.004Z,68.30
2023-02-02T16:07:53.205Z,69.18
2023-02-02T16:08:56.996Z,69.29
2023-02-02T16:10:07.469Z,69.24
2023-02-02T16:11:19.259Z,68.67
2023-02-02T16:12:30.213Z,68.49
2023-02-02T16:13:40.363Z,68.47
2023-02-02T16:14:56.170Z,68.62
2023-02-02T16:16:08.970Z,69.20
2023-02-02T16:17:30.073Z,69.42
2023-02-02T16:18:39.227Z,70.28
2023-02-02T16:21:10.099Z,70.10
2023-02-02T16:22:26.260Z,70.72
2023-02-02T16:23:37.791Z,71.11
2023-02-02T16:24:56.930Z,70.71
2023-02-02T16:26:07.685Z,69.77
2023-02-02T16:27:22.207Z,69.62
2023-02-02T16:28:32.035Z,69.28
2023-02-02T16:29:42.247Z,69.00
2023-02-02T16:30:52.975Z,68.80
2023-02-02T16:32:06.122Z,69.11
2023-02-02T16:33:39.320Z,69.95
2023-02-02T16:34:49.395Z,69.38
2023-02-02T16:35:58.170Z,70.08
2023-02-02T16:37:26.980Z,70.49
2023-02-02T16:38:38.937Z,70.92
2023-02-02T16:39:49.636Z,70.53
2023-02-02T16:42:34.497Z,69.91
2023-02-02T16:43:43.749Z,68.56
2023-02-02T16:44:52.974Z,68.60
2023-02-02T16:46:13.140Z,68.76
2023-02-02T16:47:31.426Z,68.58
2023-02-02T16:48:46.498Z,68.54
2023-02-02T16:50:12.707Z,68.70
2023-02-02T16:51:25.300Z,68.81
2023-02-02T16:52:37.600Z,68.78
2023-02-02T16:53:50.088Z,68.63
2023-02-02T16:54:59.756Z,68.91
2023-02-02T16:56:10.627Z,68.55
2023-02-02T16:57:28.224Z,68.64
2023-02-02T16:59:58.886Z,68.93
2023-02-02T17:01:16.397Z,69.17
2023-02-02T17:03:53.999Z,69.33
2023-02-02T17:05:06.456Z,69.42
2023-02-02T17:06:17.235Z,69.58
2023-02-02T17:07:28.409Z,69.64
2023-02-02T17:08:41.341Z,69.52
2023-02-02T17:09:52.235Z,69.68
2023-02-02T17:11:07.658Z,70.08
2023-02-02T17:12:36.196Z,70.07
2023-02-02T17:13:36.273Z,70.03
2023-02-02T17:15:03.864Z,70.32
2023-02-02T17:16:19.630Z,70.44
2023-02-02T17:17:29.126Z,70.45
2023-02-02T17:18:38.054Z,70.15
2023-02-02T17:19:48.294Z,69.44
2023-02-02T17:21:02.323Z,69.04
2023-02-02T17:22:11.429Z,69.33
2023-02-02T17:23:20.402Z,69.35
2023-02-02T17:25:46.977Z,69.96
2023-02-02T17:26:56.337Z,70.23
2023-02-02T17:28:14.514Z,69.93
2023-02-02T17:29:24.573Z,70.45
2023-02-02T17:30:34.224Z,70.19
2023-02-02T17:31:43.372Z,69.78
2023-02-02T17:32:52.084Z,70.34
2023-02-02T17:34:00.798Z,70.83
2023-02-02T17:36:32.497Z,69.96
2023-02-02T17:37:42.295Z,69.37
2023-02-02T17:40:08.827Z,70.54
2023-02-02T17:41:18.352Z,70.45
2023-02-02T17:42:30.624Z,70.52
2023-02-02T17:45:23.547Z,69.59
2023-02-02T17:46:34.187Z,69.30
2023-02-02T17:47:42.911Z,68.87
2023-02-02T17:48:51.525Z,69.13
2023-02-02T17:50:00.996Z,70.04
2023-02-02T17:51:16.521Z,70.46
2023-02-02T17:52:25.683Z,69.42
2023-02-02T17:53:34.260Z,69.50
2023-02-02T17:54:42.849Z,69.07
2023-02-02T17:55:52.322Z,69.02
2023-02-02T17:57:01.000Z,69.51
2023-02-02T17:58:12.976Z,70.26
2023-02-02T17:59:22.704Z,70.75
2023-02-02T18:00:32.413Z,70.65
2023-02-02T18:01:42.660Z,71.31
2023-02-02T18:04:21.559Z,72.34
2023-02-02T18:05:30.735Z,71.57
2023-02-02T18:07:54.449Z,70.83
2023-02-02T18:09:03.786Z,70.67
2023-02-02T18:11:29.201Z,70.31
2023-02-02T18:12:39.144Z,70.39
2023-02-02T18:13:48.236Z,69.44
2023-02-02T18:16:14.588Z,70.02
2023-02-02T18:17:25.448Z,70.24
2023-02-02T18:18:33.999Z,71.52
2023-02-02T18:19:44.718Z,70.75
2023-02-02T18:20:56.500Z,70.50
2023-02-02T18:22:07.745Z,71.21
2023-02-02T18:23:18.960Z,70.33
2023-02-02T18:24:28.112Z,70.33
2023-02-02T18:26:54.329Z,70.88
2023-02-02T18:28:04.661Z,70.16
2023-02-02T18:29:14.282Z,69.81
2023-02-02T18:30:23.537Z,69.50
2023-02-02T18:31:33.312Z,69.47
2023-02-02T18:32:42.687Z,68.44
2023-02-02T18:33:52.150Z,69.48
2023-02-02T18:35:00.680Z,70.61
2023-02-02T18:36:19.442Z,69.97
2023-02-02T18:37:29.231Z,69.84
2023-02-02T18:39:57.756Z,70.52
2023-02-02T18:41:06.862Z,70.29
2023-02-02T18:42:17.906Z,69.85
2023-02-02T18:43:27.481Z,70.43
2023-02-02T18:44:38.013Z,70.40
2023-02-02T18:47:06.815Z,69.93
2023-02-02T18:48:17.258Z,69.40
2023-02-02T18:49:25.941Z,68.90
2023-02-02T18:50:35.640Z,69.22
2023-02-02T18:51:44.189Z,68.80
2023-02-02T18:52:53.985Z,68.88
2023-02-02T18:54:04.000Z,69.23
2023-02-02T18:55:12.565Z,69.41
2023-02-02T18:56:22.210Z,69.21
2023-02-02T18:57:31.760Z,69.24
2023-02-02T18:58:41.074Z,69.41
2023-02-02T18:59:52.642Z,69.50
2023-02-02T19:01:08.679Z,70.07
2023-02-02T19:02:19.667Z,70.77
2023-02-02T19:03:29.247Z,70.46
2023-02-02T19:04:38.325Z,70.43
2023-02-02T19:06:09.704Z,69.74
2023-02-02T19:07:37.795Z,69.85
2023-02-02T19:08:46.960Z,70.35
2023-02-02T19:11:17.390Z,70.37
2023-02-02T19:12:28.091Z,70.27
2023-02-02T19:13:36.732Z,69.92
2023-02-02T19:14:45.610Z,69.79
2023-02-02T19:15:54.584Z,70.21
2023-02-02T19:18:26.247Z,71.60
2023-02-02T19:19:39.518Z,72.37
2023-02-02T19:20:49.249Z,72.71
2023-02-02T19:22:02.394Z,72.77
2023-02-02T19:24:36.892Z,71.80
2023-02-02T19:25:51.540Z,71.95
2023-02-02T19:28:29.351Z,71.85
2023-02-02T19:33:40.230Z,71.01
2023-02-02T19:34:55.610Z,70.98
2023-02-02T19:36:08.795Z,70.68
2023-02-02T19:37:32.780Z,70.33
2023-02-02T19:40:09.533Z,70.87
2023-02-02T19:41:22.138Z,70.62
2023-02-02T19:42:33.021Z,70.81
2023-02-02T19:43:44.237Z,70.96
2023-02-02T19:46:16.083Z,70.96
2023-02-02T19:51:38.714Z,71.06
2023-02-02T19:52:52.197Z,71.39
2023-02-02T19:54:00.948Z,71.34
2023-02-02T21:07:09.012Z,86.39
2023-02-02T21:09:32.799Z,85.20
2023-02-02T21:10:41.570Z,84.66
2023-02-02T21:11:50.583Z,84.09
2023-02-02T21:12:59.339Z,83.97
2023-02-02T21:14:17.887Z,83.59
2023-02-02T21:15:27.032Z,82.58
2023-02-02T21:16:36.970Z,81.48
2023-02-02T21:17:45.992Z,80.73
2023-02-02T21:18:55.315Z,80.85
2023-02-02T21:20:05.142Z,80.17
2023-02-02T21:21:15.957Z,80.20
2023-02-02T21:22:24.707Z,78.74
2023-02-02T21:23:33.286Z,78.18
2023-02-02T21:24:41.962Z,76.68
2023-02-02T21:25:51.520Z,75.74
2023-02-02T21:27:01.672Z,74.82
2023-02-02T21:28:10.303Z,75.05
2023-02-02T21:29:19.370Z,74.91
2023-02-02T21:30:30.123Z,74.23
2023-02-02T21:31:39.922Z,74.83
2023-02-02T21:32:50.910Z,75.50
2023-02-02T21:33:59.687Z,74.88
2023-02-02T21:35:12.097Z,74.99
2023-02-02T21:36:32.203Z,74.52
2023-02-02T21:39:06.311Z,73.31
2023-02-02T21:40:22.037Z,73.12
2023-02-02T21:41:32.966Z,73.76
2023-02-02T21:44:00.909Z,73.28
2023-02-02T21:45:30.236Z,72.96
2023-02-02T21:46:40.011Z,73.16
2023-02-02T21:48:01.586Z,72.31
2023-02-02T21:49:20.454Z,71.86
2023-02-02T21:50:32.971Z,71.92
2023-02-02T21:51:43.073Z,71.39
2023-02-02T21:54:26.987Z,71.58
2023-02-02T21:56:54.247Z,69.32
2023-02-02T21:59:32.021Z,70.18
2023-02-02T22:00:42.228Z,70.60
2023-02-02T22:01:53.200Z,70.60
2023-02-02T22:03:02.756Z,71.62
2023-02-02T22:04:23.931Z,71.62
2023-02-02T22:05:37.199Z,71.60
2023-02-02T22:08:23.296Z,71.17
2023-02-02T22:10:54.793Z,71.19
2023-02-02T22:13:24.414Z,70.83
2023-02-02T22:15:55.988Z,70.16
2023-02-02T22:17:23.642Z,70.43
2023-02-02T22:18:36.184Z,71.16
2023-02-02T22:19:46.020Z,71.58
2023-02-02T22:20:56.307Z,71.25
2023-02-02T22:22:13.487Z,71.46
2023-02-02T22:23:25.908Z,70.43
2023-02-02T22:25:54.395Z,71.23
2023-02-02T22:27:04.604Z,71.79
2023-02-02T22:29:41.926Z,71.09
2023-02-02T22:30:52.877Z,69.84
2023-02-02T22:32:01.910Z,69.93
2023-02-02T22:33:12.567Z,70.30
2023-02-02T22:34:21.069Z,70.49
2023-02-02T22:35:30.859Z,70.92
2023-02-02T22:37:55.222Z,70.88
2023-02-02T22:39:05.133Z,71.50
2023-02-02T22:41:30.832Z,72.17
2023-02-02T22:42:40.334Z,72.37
2023-02-02T22:45:04.756Z,72.22
2023-02-02T22:46:14.220Z,72.63
2023-02-02T22:47:23.459Z,72.80
2023-02-02T22:48:32.540Z,73.27
2023-02-02T22:49:41.163Z,72.42
2023-02-02T22:50:49.866Z,72.64
2023-02-02T22:51:59.433Z,72.08
2023-02-02T22:54:25.138Z,71.86
2023-02-02T22:55:35.232Z,71.10
2023-02-02T22:56:44.398Z,71.11